sensor_id;sensor_type;location;lat;lon;timestamp;pressure;altitude;pressure_sealevel;temperature;humidity
11099;BME280;12223;42.650;23.364;2023-04-15T00:01:51;93938.19;;;6.92;100.00
11099;BME280;12223;42.650;23.364;2023-04-15T00:04:19;93943.75;;;7.02;100.00
11099;BME280;12223;42.650;23.364;2023-04-15T00:06:49;93945.97;;;6.98;100.00
11099;BME280;12223;42.650;23.364;2023-04-15T00:09:15;93946.38;;;7.02;100.00
11099;BME280;12223;42.650;23.364;2023-04-15T00:11:42;93946.22;;;7.33;100.00
11099;BME280;12223;42.650;23.364;2023-04-15T00:14:08;93967.81;;;7.17;100.00
11099;BME280;12223;42.650;23.364;2023-04-15T00:16:35;93979.97;;;6.93;100.00
11099;BME280;12223;42.650;23.364;2023-04-15T00:19:03;93979.47;;;7.21;100.00
11099;BME280;12223;42.650;23.364;2023-04-15T00:21:30;93965.53;;;7.02;100.00
11099;BME280;12223;42.650;23.364;2023-04-15T00:23:56;93971.75;;;7.26;100.00
11099;BME280;12223;42.650;23.364;2023-04-15T00:26:23;93973.34;;;7.63;100.00
11099;BME280;12223;42.650;23.364;2023-04-15T00:28:49;93977.56;;;7.46;100.00
11099;BME280;12223;42.650;23.364;2023-04-15T00:31:16;93970.09;;;7.32;100.00
11099;BME280;12223;42.650;23.364;2023-04-15T00:33:42;93965.72;;;7.25;100.00
11099;BME280;12223;42.650;23.364;2023-04-15T00:36:11;93955.06;;;7.39;100.00
11099;BME280;12223;42.650;23.364;2023-04-15T00:38:37;93950.44;;;7.16;100.00
11099;BME280;12223;42.650;23.364;2023-04-15T00:41:04;93962.25;;;7.61;100.00
11099;BME280;12223;42.650;23.364;2023-04-15T00:43:30;93979.25;;;7.59;100.00
11099;BME280;12223;42.650;23.364;2023-04-15T00:45:57;93969.94;;;7.63;100.00
11099;BME280;12223;42.650;23.364;2023-04-15T00:48:24;93963.50;;;7.59;100.00
11099;BME280;12223;42.650;23.364;2023-04-15T00:50:52;93937.97;;;7.48;100.00
11099;BME280;12223;42.650;23.364;2023-04-15T00:53:19;93960.16;;;7.52;100.00
11099;BME280;12223;42.650;23.364;2023-04-15T00:55:46;93968.34;;;7.44;100.00
11099;BME280;12223;42.650;23.364;2023-04-15T00:58:13;93963.88;;;7.08;100.00
11099;BME280;12223;42.650;23.364;2023-04-15T01:00:39;93967.25;;;7.33;100.00
11099;BME280;12223;42.650;23.364;2023-04-15T01:03:06;93967.94;;;7.40;100.00
11099;BME280;12223;42.650;23.364;2023-04-15T01:05:32;93958.25;;;7.41;100.00
11099;BME280;12223;42.650;23.364;2023-04-15T01:07:59;93956.34;;;7.30;100.00
11099;BME280;12223;42.650;23.364;2023-04-15T01:13:30;93947.31;;;7.44;100.00
11099;BME280;12223;42.650;23.364;2023-04-15T01:15:56;93964.03;;;7.49;100.00
11099;BME280;12223;42.650;23.364;2023-04-15T01:18:23;93957.44;;;7.40;100.00
11099;BME280;12223;42.650;23.364;2023-04-15T01:20:50;93963.16;;;7.37;100.00
11099;BME280;12223;42.650;23.364;2023-04-15T01:23:16;93960.66;;;7.42;100.00
11099;BME280;12223;42.650;23.364;2023-04-15T01:25:44;93967.09;;;7.64;100.00
11099;BME280;12223;42.650;23.364;2023-04-15T01:28:11;93960.00;;;7.65;100.00
11099;BME280;12223;42.650;23.364;2023-04-15T01:30:38;93951.84;;;7.37;100.00
11099;BME280;12223;42.650;23.364;2023-04-15T01:33:04;93954.44;;;7.55;100.00
11099;BME280;12223;42.650;23.364;2023-04-15T01:35:31;93960.44;;;7.62;100.00
11099;BME280;12223;42.650;23.364;2023-04-15T01:37:58;93958.63;;;7.44;100.00
11099;BME280;12223;42.650;23.364;2023-04-15T01:40:28;93974.09;;;7.52;100.00
11099;BME280;12223;42.650;23.364;2023-04-15T01:42:56;93975.91;;;7.34;100.00
11099;BME280;12223;42.650;23.364;2023-04-15T01:45:22;93963.00;;;7.14;100.00
11099;BME280;12223;42.650;23.364;2023-04-15T01:47:49;93962.91;;;7.02;100.00
11099;BME280;12223;42.650;23.364;2023-04-15T01:50:16;93978.59;;;7.09;100.00
11099;BME280;12223;42.650;23.364;2023-04-15T01:52:44;93978.63;;;7.27;100.00
11099;BME280;12223;42.650;23.364;2023-04-15T01:55:11;93979.84;;;7.24;100.00
11099;BME280;12223;42.650;23.364;2023-04-15T01:57:38;93980.06;;;7.23;100.00
11099;BME280;12223;42.650;23.364;2023-04-15T02:00:06;93965.66;;;6.89;100.00
11099;BME280;12223;42.650;23.364;2023-04-15T02:02:33;93986.06;;;7.30;100.00
11099;BME280;12223;42.650;23.364;2023-04-15T02:05:00;93989.97;;;7.21;100.00
11099;BME280;12223;42.650;23.364;2023-04-15T02:07:26;93974.75;;;7.30;100.00
11099;BME280;12223;42.650;23.364;2023-04-15T02:09:56;93970.38;;;6.80;100.00
11099;BME280;12223;42.650;23.364;2023-04-15T02:12:22;93965.84;;;6.69;100.00
11099;BME280;12223;42.650;23.364;2023-04-15T02:14:49;93950.84;;;6.76;100.00
11099;BME280;12223;42.650;23.364;2023-04-15T02:17:17;93946.56;;;6.57;100.00
11099;BME280;12223;42.650;23.364;2023-04-15T02:19:44;93951.84;;;7.00;100.00
11099;BME280;12223;42.650;23.364;2023-04-15T02:22:10;93964.59;;;7.15;100.00
11099;BME280;12223;42.650;23.364;2023-04-15T02:24:42;93972.78;;;7.07;100.00
11099;BME280;12223;42.650;23.364;2023-04-15T02:27:10;93953.91;;;6.49;100.00
11099;BME280;12223;42.650;23.364;2023-04-15T02:29:36;93933.06;;;6.29;100.00
11099;BME280;12223;42.650;23.364;2023-04-15T02:32:03;93933.72;;;6.74;100.00
11099;BME280;12223;42.650;23.364;2023-04-15T02:34:31;93919.34;;;6.52;100.00
11099;BME280;12223;42.650;23.364;2023-04-15T02:36:57;93919.28;;;6.83;100.00
11099;BME280;12223;42.650;23.364;2023-04-15T02:39:24;93919.63;;;6.68;100.00
11099;BME280;12223;42.650;23.364;2023-04-15T02:41:50;93912.84;;;6.61;100.00
11099;BME280;12223;42.650;23.364;2023-04-15T02:44:17;93920.81;;;6.91;100.00
11099;BME280;12223;42.650;23.364;2023-04-15T02:46:44;93912.06;;;6.97;100.00
11099;BME280;12223;42.650;23.364;2023-04-15T02:49:13;93902.31;;;6.42;100.00
11099;BME280;12223;42.650;23.364;2023-04-15T02:51:41;93919.69;;;6.62;100.00
11099;BME280;12223;42.650;23.364;2023-04-15T02:54:07;93915.00;;;6.89;100.00
11099;BME280;12223;42.650;23.364;2023-04-15T02:56:34;93910.94;;;5.93;100.00
11099;BME280;12223;42.650;23.364;2023-04-15T02:59:00;93881.19;;;6.13;100.00
11099;BME280;12223;42.650;23.364;2023-04-15T03:01:27;93890.81;;;6.19;100.00
11099;BME280;12223;42.650;23.364;2023-04-15T03:03:53;93905.25;;;6.28;100.00
11099;BME280;12223;42.650;23.364;2023-04-15T03:06:20;93924.03;;;6.50;100.00
11099;BME280;12223;42.650;23.364;2023-04-15T03:08:47;93918.97;;;5.60;100.00
11099;BME280;12223;42.650;23.364;2023-04-15T03:11:14;93900.03;;;5.14;100.00
11099;BME280;12223;42.650;23.364;2023-04-15T03:13:42;93931.06;;;5.99;100.00
11099;BME280;12223;42.650;23.364;2023-04-15T03:16:08;93967.44;;;6.14;100.00
11099;BME280;12223;42.650;23.364;2023-04-15T03:18:35;93984.59;;;6.17;100.00
11099;BME280;12223;42.650;23.364;2023-04-15T03:21:02;93988.13;;;5.97;100.00
11099;BME280;12223;42.650;23.364;2023-04-15T03:23:29;93988.97;;;5.85;100.00
11099;BME280;12223;42.650;23.364;2023-04-15T03:26:00;93963.16;;;5.82;100.00
11099;BME280;12223;42.650;23.364;2023-04-15T03:28:27;93957.38;;;5.22;100.00
11099;BME280;12223;42.650;23.364;2023-04-15T03:30:54;93944.94;;;5.11;100.00
11099;BME280;12223;42.650;23.364;2023-04-15T03:33:20;93956.63;;;5.66;100.00
11099;BME280;12223;42.650;23.364;2023-04-15T03:35:47;93972.41;;;5.97;100.00
11099;BME280;12223;42.650;23.364;2023-04-15T03:38:13;93986.69;;;6.01;100.00
11099;BME280;12223;42.650;23.364;2023-04-15T03:40:40;94002.38;;;6.08;100.00
11099;BME280;12223;42.650;23.364;2023-04-15T03:43:08;94009.03;;;6.11;100.00
11099;BME280;12223;42.650;23.364;2023-04-15T03:45:34;93997.84;;;5.90;100.00
11099;BME280;12223;42.650;23.364;2023-04-15T03:48:01;93999.44;;;5.91;100.00
11099;BME280;12223;42.650;23.364;2023-04-15T03:50:27;94020.56;;;5.39;100.00
11099;BME280;12223;42.650;23.364;2023-04-15T03:52:54;94004.31;;;5.81;100.00
11099;BME280;12223;42.650;23.364;2023-04-15T03:55:22;94010.78;;;5.72;100.00
11099;BME280;12223;42.650;23.364;2023-04-15T03:57:48;94001.34;;;5.64;100.00
11099;BME280;12223;42.650;23.364;2023-04-15T04:00:16;94004.94;;;5.70;100.00
11099;BME280;12223;42.650;23.364;2023-04-15T04:02:42;94004.69;;;5.85;100.00
11099;BME280;12223;42.650;23.364;2023-04-15T04:05:10;94019.34;;;6.37;100.00
11099;BME280;12223;42.650;23.364;2023-04-15T04:07:36;94037.03;;;6.48;100.00
11099;BME280;12223;42.650;23.364;2023-04-15T04:10:03;94036.56;;;6.20;100.00
11099;BME280;12223;42.650;23.364;2023-04-15T04:12:29;94041.72;;;6.39;100.00
11099;BME280;12223;42.650;23.364;2023-04-15T04:14:56;94030.16;;;6.47;100.00
11099;BME280;12223;42.650;23.364;2023-04-15T04:17:24;94042.00;;;6.88;100.00
11099;BME280;12223;42.650;23.364;2023-04-15T04:19:50;94039.94;;;7.14;100.00
11099;BME280;12223;42.650;23.364;2023-04-15T04:22:17;94060.34;;;7.55;100.00
11099;BME280;12223;42.650;23.364;2023-04-15T04:24:47;94074.03;;;7.64;100.00
11099;BME280;12223;42.650;23.364;2023-04-15T04:27:13;94071.91;;;7.30;100.00
11099;BME280;12223;42.650;23.364;2023-04-15T04:29:40;94072.59;;;8.16;100.00
11099;BME280;12223;42.650;23.364;2023-04-15T04:32:06;94076.72;;;7.76;100.00
11099;BME280;12223;42.650;23.364;2023-04-15T04:34:36;94067.03;;;8.42;100.00
11099;BME280;12223;42.650;23.364;2023-04-15T04:37:03;94071.16;;;7.22;100.00
11099;BME280;12223;42.650;23.364;2023-04-15T04:39:30;94055.72;;;6.83;100.00
11099;BME280;12223;42.650;23.364;2023-04-15T04:41:56;94052.16;;;6.77;100.00
11099;BME280;12223;42.650;23.364;2023-04-15T04:44:23;94077.06;;;7.97;100.00
11099;BME280;12223;42.650;23.364;2023-04-15T04:46:50;94097.72;;;8.48;100.00
11099;BME280;12223;42.650;23.364;2023-04-15T04:49:16;94087.66;;;7.91;100.00
11099;BME280;12223;42.650;23.364;2023-04-15T04:51:44;94084.00;;;7.92;100.00
11099;BME280;12223;42.650;23.364;2023-04-15T04:54:11;94092.28;;;8.62;100.00
11099;BME280;12223;42.650;23.364;2023-04-15T04:56:37;94101.03;;;9.27;100.00
11099;BME280;12223;42.650;23.364;2023-04-15T04:59:04;94116.84;;;10.08;100.00
11099;BME280;12223;42.650;23.364;2023-04-15T05:01:31;94126.63;;;9.73;100.00
11099;BME280;12223;42.650;23.364;2023-04-15T05:03:57;94120.78;;;9.59;100.00
11099;BME280;12223;42.650;23.364;2023-04-15T05:06:24;94115.28;;;8.96;100.00
11099;BME280;12223;42.650;23.364;2023-04-15T05:08:53;94119.56;;;10.37;100.00
11099;BME280;12223;42.650;23.364;2023-04-15T05:11:20;94136.59;;;11.14;100.00
11099;BME280;12223;42.650;23.364;2023-04-15T05:13:47;94148.72;;;10.42;100.00
11099;BME280;12223;42.650;23.364;2023-04-15T05:16:14;94148.94;;;10.05;100.00
11099;BME280;12223;42.650;23.364;2023-04-15T05:18:41;94148.88;;;11.37;100.00
11099;BME280;12223;42.650;23.364;2023-04-15T05:21:07;94146.31;;;11.42;100.00
11099;BME280;12223;42.650;23.364;2023-04-15T05:23:34;94154.69;;;12.01;100.00
11099;BME280;12223;42.650;23.364;2023-04-15T05:26:03;94150.03;;;12.95;95.77
11099;BME280;12223;42.650;23.364;2023-04-15T05:28:29;94145.88;;;13.53;82.64
11099;BME280;12223;42.650;23.364;2023-04-15T05:30:56;94143.88;;;13.38;73.36
11099;BME280;12223;42.650;23.364;2023-04-15T05:33:22;94153.91;;;14.00;66.28
11099;BME280;12223;42.650;23.364;2023-04-15T05:35:49;94146.63;;;12.13;75.78
11099;BME280;12223;42.650;23.364;2023-04-15T05:38:15;94145.47;;;13.71;70.30
11099;BME280;12223;42.650;23.364;2023-04-15T05:40:42;94145.97;;;14.42;62.04
11099;BME280;12223;42.650;23.364;2023-04-15T05:43:10;94149.16;;;14.39;56.29
11099;BME280;12223;42.650;23.364;2023-04-15T05:45:36;94150.00;;;14.07;53.18
11099;BME280;12223;42.650;23.364;2023-04-15T05:48:03;94155.94;;;13.24;58.17
11099;BME280;12223;42.650;23.364;2023-04-15T05:50:29;94150.19;;;12.83;61.13
11099;BME280;12223;42.650;23.364;2023-04-15T05:52:56;94151.22;;;13.58;59.28
11099;BME280;12223;42.650;23.364;2023-04-15T05:55:22;94150.72;;;13.66;61.95
11099;BME280;12223;42.650;23.364;2023-04-15T05:57:49;94154.28;;;13.45;61.09
11099;BME280;12223;42.650;23.364;2023-04-15T06:00:17;94159.22;;;12.66;61.75
11099;BME280;12223;42.650;23.364;2023-04-15T06:02:44;94169.72;;;13.85;60.19
11099;BME280;12223;42.650;23.364;2023-04-15T06:05:10;94173.59;;;12.48;63.54
11099;BME280;12223;42.650;23.364;2023-04-15T06:07:37;94161.09;;;12.27;71.01
11099;BME280;12223;42.650;23.364;2023-04-15T06:10:04;94173.75;;;13.60;63.97
11099;BME280;12223;42.650;23.364;2023-04-15T06:12:31;94172.22;;;13.96;56.57
11099;BME280;12223;42.650;23.364;2023-04-15T06:14:58;94167.50;;;13.13;60.43
11099;BME280;12223;42.650;23.364;2023-04-15T06:17:26;94173.41;;;12.55;61.61
11099;BME280;12223;42.650;23.364;2023-04-15T06:19:53;94176.09;;;15.40;52.84
11099;BME280;12223;42.650;23.364;2023-04-15T06:22:20;94180.22;;;14.01;53.48
11099;BME280;12223;42.650;23.364;2023-04-15T06:24:47;94179.38;;;12.06;64.53
11099;BME280;12223;42.650;23.364;2023-04-15T06:27:13;94182.19;;;13.04;60.69
11099;BME280;12223;42.650;23.364;2023-04-15T06:29:40;94171.16;;;14.34;56.24
11099;BME280;12223;42.650;23.364;2023-04-15T06:32:06;94185.34;;;13.22;58.63
11099;BME280;12223;42.650;23.364;2023-04-15T06:34:34;94189.66;;;13.07;58.32
11099;BME280;12223;42.650;23.364;2023-04-15T06:37:01;94198.44;;;14.25;53.76
11099;BME280;12223;42.650;23.364;2023-04-15T06:39:27;94196.41;;;15.72;49.88
11099;BME280;12223;42.650;23.364;2023-04-15T06:41:54;94204.75;;;14.56;52.45
11099;BME280;12223;42.650;23.364;2023-04-15T06:44:20;94197.97;;;19.45;42.04
11099;BME280;12223;42.650;23.364;2023-04-15T06:46:47;94190.75;;;24.27;31.35
11099;BME280;12223;42.650;23.364;2023-04-15T06:49:13;94204.59;;;20.09;36.47
11099;BME280;12223;42.650;23.364;2023-04-15T06:51:41;94190.88;;;25.99;27.99
11099;BME280;12223;42.650;23.364;2023-04-15T06:54:07;94210.28;;;22.26;30.61
11099;BME280;12223;42.650;23.364;2023-04-15T06:56:34;94212.81;;;21.87;32.73
11099;BME280;12223;42.650;23.364;2023-04-15T06:59:01;94202.13;;;26.10;26.22
11099;BME280;12223;42.650;23.364;2023-04-15T07:01:27;94207.13;;;20.00;36.43
11099;BME280;12223;42.650;23.364;2023-04-15T07:03:54;94199.19;;;27.59;25.36
11099;BME280;12223;42.650;23.364;2023-04-15T07:06:21;94199.69;;;32.20;20.31
11099;BME280;12223;42.650;23.364;2023-04-15T07:08:49;94204.38;;;29.28;21.73
11099;BME280;12223;42.650;23.364;2023-04-15T07:11:15;94215.50;;;24.46;26.72
11099;BME280;12223;42.650;23.364;2023-04-15T07:13:42;94219.16;;;27.30;23.96
11099;BME280;12223;42.650;23.364;2023-04-15T07:16:09;94215.00;;;25.92;25.69
11099;BME280;12223;42.650;23.364;2023-04-15T07:18:35;94212.81;;;24.46;26.49
11099;BME280;12223;42.650;23.364;2023-04-15T07:21:02;94211.84;;;22.19;29.04
11099;BME280;12223;42.650;23.364;2023-04-15T07:23:28;94201.56;;;30.03;21.36
11099;BME280;12223;42.650;23.364;2023-04-15T07:25:56;94211.00;;;27.06;23.90
11099;BME280;12223;42.650;23.364;2023-04-15T07:28:23;94206.53;;;30.35;20.82
11099;BME280;12223;42.650;23.364;2023-04-15T07:30:50;94213.72;;;29.42;21.40
11099;BME280;12223;42.650;23.364;2023-04-15T07:33:16;94218.25;;;25.48;25.33
11099;BME280;12223;42.650;23.364;2023-04-15T07:35:43;94210.78;;;29.19;22.78
11099;BME280;12223;42.650;23.364;2023-04-15T07:38:10;94210.03;;;29.50;21.33
11099;BME280;12223;42.650;23.364;2023-04-15T07:40:37;94204.00;;;30.08;20.69
11099;BME280;12223;42.650;23.364;2023-04-15T07:43:05;94207.53;;;27.78;23.08
11099;BME280;12223;42.650;23.364;2023-04-15T07:45:34;94213.56;;;24.03;25.81
11099;BME280;12223;42.650;23.364;2023-04-15T07:48:01;94219.00;;;16.70;39.00
11099;BME280;12223;42.650;23.364;2023-04-15T07:50:28;94190.56;;;17.74;37.18
11099;BME280;12223;42.650;23.364;2023-04-15T07:52:54;94215.00;;;20.29;33.72
11099;BME280;12223;42.650;23.364;2023-04-15T07:55:21;94213.41;;;18.24;36.56
11099;BME280;12223;42.650;23.364;2023-04-15T07:57:48;94243.53;;;14.52;46.07
11099;BME280;12223;42.650;23.364;2023-04-15T08:00:16;94236.97;;;13.63;49.05
11099;BME280;12223;42.650;23.364;2023-04-15T08:02:43;94242.09;;;13.75;50.52
11099;BME280;12223;42.650;23.364;2023-04-15T08:05:11;94238.81;;;13.63;50.44
11099;BME280;12223;42.650;23.364;2023-04-15T08:07:39;94232.34;;;14.97;47.61
11099;BME280;12223;42.650;23.364;2023-04-15T08:10:06;94238.00;;;12.92;53.01
11099;BME280;12223;42.650;23.364;2023-04-15T08:12:32;94235.78;;;13.06;53.07
11099;BME280;12223;42.650;23.364;2023-04-15T08:14:59;94232.72;;;13.94;50.75
11099;BME280;12223;42.650;23.364;2023-04-15T08:17:27;94240.88;;;12.90;52.89
11099;BME280;12223;42.650;23.364;2023-04-15T08:19:54;94244.34;;;14.20;50.62
11099;BME280;12223;42.650;23.364;2023-04-15T08:22:21;94234.09;;;14.76;48.33
11099;BME280;12223;42.650;23.364;2023-04-15T08:24:48;94237.50;;;13.97;51.80
11099;BME280;12223;42.650;23.364;2023-04-15T08:27:14;94235.56;;;13.56;51.12
11099;BME280;12223;42.650;23.364;2023-04-15T08:29:41;94232.69;;;13.89;53.25
11099;BME280;12223;42.650;23.364;2023-04-15T08:32:07;94226.03;;;15.13;48.49
11099;BME280;12223;42.650;23.364;2023-04-15T08:34:35;94221.66;;;14.02;50.46
11099;BME280;12223;42.650;23.364;2023-04-15T08:37:02;94228.22;;;13.95;47.42
11099;BME280;12223;42.650;23.364;2023-04-15T08:39:28;94220.47;;;13.88;47.35
11099;BME280;12223;42.650;23.364;2023-04-15T08:41:55;94217.56;;;13.63;47.48
11099;BME280;12223;42.650;23.364;2023-04-15T08:44:24;94226.38;;;13.42;47.32
11099;BME280;12223;42.650;23.364;2023-04-15T08:46:52;94216.41;;;14.13;47.72
11099;BME280;12223;42.650;23.364;2023-04-15T08:49:19;94218.34;;;14.59;46.64
11099;BME280;12223;42.650;23.364;2023-04-15T08:51:48;94216.22;;;14.24;46.12
11099;BME280;12223;42.650;23.364;2023-04-15T08:54:15;94222.75;;;14.43;46.10
11099;BME280;12223;42.650;23.364;2023-04-15T08:56:41;94218.97;;;14.76;44.55
11099;BME280;12223;42.650;23.364;2023-04-15T08:59:08;94212.72;;;13.55;47.80
11099;BME280;12223;42.650;23.364;2023-04-15T09:01:35;94200.56;;;14.65;47.16
11099;BME280;12223;42.650;23.364;2023-04-15T09:04:02;94225.69;;;13.78;45.01
11099;BME280;12223;42.650;23.364;2023-04-15T09:06:32;94202.06;;;14.51;43.51
11099;BME280;12223;42.650;23.364;2023-04-15T09:09:00;94204.25;;;15.26;42.03
11099;BME280;12223;42.650;23.364;2023-04-15T09:11:26;94191.44;;;15.13;40.29
11099;BME280;12223;42.650;23.364;2023-04-15T09:13:55;94187.63;;;14.88;42.14
11099;BME280;12223;42.650;23.364;2023-04-15T09:16:21;94187.31;;;14.75;42.06
11099;BME280;12223;42.650;23.364;2023-04-15T09:18:48;94183.03;;;14.74;41.57
11099;BME280;12223;42.650;23.364;2023-04-15T09:21:15;94176.50;;;14.92;41.30
11099;BME280;12223;42.650;23.364;2023-04-15T09:23:52;94173.88;;;15.02;41.23
11099;BME280;12223;42.650;23.364;2023-04-15T09:26:28;94187.34;;;14.33;41.10
11099;BME280;12223;42.650;23.364;2023-04-15T09:28:56;94184.28;;;14.51;40.23
11099;BME280;12223;42.650;23.364;2023-04-15T09:31:28;94182.25;;;15.56;38.55
11099;BME280;12223;42.650;23.364;2023-04-15T09:33:55;94190.88;;;15.06;39.66
11099;BME280;12223;42.650;23.364;2023-04-15T09:36:21;94182.03;;;15.98;36.90
11099;BME280;12223;42.650;23.364;2023-04-15T09:38:53;94173.50;;;15.96;37.07
11099;BME280;12223;42.650;23.364;2023-04-15T09:41:22;94180.31;;;15.31;38.08
11099;BME280;12223;42.650;23.364;2023-04-15T09:43:49;94178.31;;;15.99;36.39
11099;BME280;12223;42.650;23.364;2023-04-15T09:46:15;94181.19;;;16.38;36.20
11099;BME280;12223;42.650;23.364;2023-04-15T09:48:42;94190.53;;;15.64;36.37
11099;BME280;12223;42.650;23.364;2023-04-15T09:51:08;94188.16;;;15.88;35.87
11099;BME280;12223;42.650;23.364;2023-04-15T09:53:35;94198.03;;;14.95;37.76
11099;BME280;12223;42.650;23.364;2023-04-15T09:56:02;94190.81;;;16.19;37.52
11099;BME280;12223;42.650;23.364;2023-04-15T09:58:34;94184.16;;;16.01;35.94
11099;BME280;12223;42.650;23.364;2023-04-15T10:01:03;94171.78;;;15.14;35.55
11099;BME280;12223;42.650;23.364;2023-04-15T10:03:30;94175.00;;;15.26;35.43
11099;BME280;12223;42.650;23.364;2023-04-15T10:05:58;94170.03;;;15.55;34.33
11099;BME280;12223;42.650;23.364;2023-04-15T10:08:26;94168.03;;;15.05;34.63
11099;BME280;12223;42.650;23.364;2023-04-15T10:10:52;94177.59;;;15.01;36.63
11099;BME280;12223;42.650;23.364;2023-04-15T10:13:20;94175.09;;;15.66;36.34
11099;BME280;12223;42.650;23.364;2023-04-15T10:15:49;94132.38;;;15.06;36.45
11099;BME280;12223;42.650;23.364;2023-04-15T10:18:18;94152.09;;;15.20;37.02
11099;BME280;12223;42.650;23.364;2023-04-15T10:20:45;94152.22;;;15.86;36.37
11099;BME280;12223;42.650;23.364;2023-04-15T10:23:13;94155.94;;;16.05;35.57
11099;BME280;12223;42.650;23.364;2023-04-15T10:25:40;94148.13;;;16.49;34.43
11099;BME280;12223;42.650;23.364;2023-04-15T10:28:07;94139.84;;;16.56;33.49
11099;BME280;12223;42.650;23.364;2023-04-15T10:30:34;94139.56;;;16.72;33.27
11099;BME280;12223;42.650;23.364;2023-04-15T10:33:03;94135.25;;;16.76;32.76
11099;BME280;12223;42.650;23.364;2023-04-15T10:35:31;94133.94;;;17.28;32.45
11099;BME280;12223;42.650;23.364;2023-04-15T10:37:58;94144.63;;;16.64;33.60
11099;BME280;12223;42.650;23.364;2023-04-15T10:40:26;94131.84;;;16.50;34.27
11099;BME280;12223;42.650;23.364;2023-04-15T10:42:53;94133.69;;;16.75;33.93
11099;BME280;12223;42.650;23.364;2023-04-15T10:45:20;94134.34;;;17.01;33.87
11099;BME280;12223;42.650;23.364;2023-04-15T10:47:50;94136.31;;;17.35;33.44
11099;BME280;12223;42.650;23.364;2023-04-15T10:50:18;94124.66;;;17.64;32.73
11099;BME280;12223;42.650;23.364;2023-04-15T10:52:45;94120.22;;;17.84;32.68
11099;BME280;12223;42.650;23.364;2023-04-15T10:55:12;94126.97;;;18.34;32.04
11099;BME280;12223;42.650;23.364;2023-04-15T10:57:40;94116.69;;;18.22;32.00
11099;BME280;12223;42.650;23.364;2023-04-15T11:00:11;94135.09;;;17.17;32.70
11099;BME280;12223;42.650;23.364;2023-04-15T11:02:45;94130.41;;;18.11;32.46
11099;BME280;12223;42.650;23.364;2023-04-15T11:05:12;94110.03;;;18.20;33.22
11099;BME280;12223;42.650;23.364;2023-04-15T11:07:45;94135.00;;;18.05;33.83
11099;BME280;12223;42.650;23.364;2023-04-15T11:12:59;94119.91;;;16.33;34.12
11099;BME280;12223;42.650;23.364;2023-04-15T11:15:27;94132.38;;;16.68;34.15
11099;BME280;12223;42.650;23.364;2023-04-15T11:17:55;94128.41;;;16.50;34.51
11099;BME280;12223;42.650;23.364;2023-04-15T11:20:22;94135.50;;;16.85;34.18
11099;BME280;12223;42.650;23.364;2023-04-15T11:22:50;94127.25;;;16.81;34.31
11099;BME280;12223;42.650;23.364;2023-04-15T11:25:23;94127.19;;;15.97;34.05
11099;BME280;12223;42.650;23.364;2023-04-15T11:27:50;94124.00;;;15.85;35.09
11099;BME280;12223;42.650;23.364;2023-04-15T11:30:19;94122.94;;;15.86;35.50
11099;BME280;12223;42.650;23.364;2023-04-15T11:32:46;94115.16;;;16.25;34.89
11099;BME280;12223;42.650;23.364;2023-04-15T11:35:12;94121.28;;;16.20;34.24
11099;BME280;12223;42.650;23.364;2023-04-15T11:37:39;94131.69;;;16.12;34.58
11099;BME280;12223;42.650;23.364;2023-04-15T11:40:08;94124.19;;;17.13;33.56
11099;BME280;12223;42.650;23.364;2023-04-15T11:42:34;94123.25;;;16.79;33.87
11099;BME280;12223;42.650;23.364;2023-04-15T11:45:07;94119.56;;;16.75;33.16
11099;BME280;12223;42.650;23.364;2023-04-15T11:47:34;94113.13;;;17.30;33.01
11099;BME280;12223;42.650;23.364;2023-04-15T11:52:41;94114.69;;;16.87;34.67
11099;BME280;12223;42.650;23.364;2023-04-15T11:55:09;94114.22;;;17.97;32.89
11099;BME280;12223;42.650;23.364;2023-04-15T11:57:35;94104.69;;;18.43;27.69
11099;BME280;12223;42.650;23.364;2023-04-15T12:00:02;94114.13;;;18.65;27.32
11099;BME280;12223;42.650;23.364;2023-04-15T12:02:29;94110.41;;;18.61;26.89
11099;BME280;12223;42.650;23.364;2023-04-15T12:05:01;94100.81;;;18.31;27.01
11099;BME280;12223;42.650;23.364;2023-04-15T12:07:28;94104.91;;;18.47;26.66
11099;BME280;12223;42.650;23.364;2023-04-15T12:09:54;94089.00;;;18.37;28.03
11099;BME280;12223;42.650;23.364;2023-04-15T12:12:26;94077.97;;;18.20;29.39
11099;BME280;12223;42.650;23.364;2023-04-15T12:14:55;94099.22;;;18.06;30.22
11099;BME280;12223;42.650;23.364;2023-04-15T12:17:22;94104.25;;;17.40;31.69
11099;BME280;12223;42.650;23.364;2023-04-15T12:19:54;94111.13;;;17.85;30.78
11099;BME280;12223;42.650;23.364;2023-04-15T12:22:21;94106.84;;;17.50;30.22
11099;BME280;12223;42.650;23.364;2023-04-15T12:24:53;94099.81;;;18.27;28.86
11099;BME280;12223;42.650;23.364;2023-04-15T12:27:24;94102.50;;;18.22;27.98
11099;BME280;12223;42.650;23.364;2023-04-15T12:29:54;94093.53;;;18.13;28.20
11099;BME280;12223;42.650;23.364;2023-04-15T12:32:28;94105.16;;;18.51;28.86
11099;BME280;12223;42.650;23.364;2023-04-15T12:34:55;94092.53;;;18.03;27.91
11099;BME280;12223;42.650;23.364;2023-04-15T12:37:22;94108.06;;;18.01;28.29
11099;BME280;12223;42.650;23.364;2023-04-15T12:39:49;94105.41;;;18.01;27.79
11099;BME280;12223;42.650;23.364;2023-04-15T12:42:15;94102.97;;;18.29;27.63
11099;BME280;12223;42.650;23.364;2023-04-15T12:44:42;94106.38;;;18.34;27.36
11099;BME280;12223;42.650;23.364;2023-04-15T12:47:12;94107.72;;;18.37;27.04
11099;BME280;12223;42.650;23.364;2023-04-15T12:49:39;94119.53;;;18.31;27.45
11099;BME280;12223;42.650;23.364;2023-04-15T12:52:06;94117.56;;;18.65;27.76
11099;BME280;12223;42.650;23.364;2023-04-15T12:54:32;94118.19;;;18.33;28.12
11099;BME280;12223;42.650;23.364;2023-04-15T12:57:01;94111.97;;;18.38;28.60
11099;BME280;12223;42.650;23.364;2023-04-15T12:59:28;94116.81;;;18.36;28.89